createdAt,value
2023-05-05T00:01:13.628Z,88761.00
2023-05-05T00:02:13.496Z,88765.00
2023-05-05T00:03:15.136Z,88761.00
2023-05-05T00:04:13.415Z,88765.00
2023-05-05T00:05:14.099Z,88765.00
2023-05-05T00:06:15.116Z,88765.00
2023-05-05T00:07:14.654Z,88763.00
2023-05-05T00:08:13.725Z,88761.00
2023-05-05T00:09:14.588Z,88761.00
2023-05-05T00:10:13.690Z,88761.00
2023-05-05T00:11:13.678Z,88759.00
2023-05-05T00:12:13.811Z,88763.00
2023-05-05T00:13:14.686Z,88761.00
2023-05-05T00:14:13.800Z,88759.00
2023-05-05T00:15:13.934Z,88759.00
2023-05-05T00:16:14.593Z,88761.00
2023-05-05T00:17:14.689Z,88755.00
2023-05-05T00:18:14.037Z,88757.00
2023-05-05T00:19:16.614Z,88757.00
2023-05-05T00:20:14.357Z,88757.00
2023-05-05T00:21:14.258Z,88759.00
2023-05-05T00:22:16.209Z,88759.00
2023-05-05T00:23:14.355Z,88759.00
2023-05-05T00:24:15.087Z,88757.00
2023-05-05T00:25:14.449Z,88761.00
2023-05-05T00:26:16.142Z,88761.00
2023-05-05T00:27:14.548Z,88759.00
2023-05-05T00:28:14.629Z,88763.00
2023-05-05T00:29:14.617Z,88763.00
2023-05-05T00:30:14.666Z,88763.00
2023-05-05T00:31:15.640Z,88767.00
2023-05-05T00:32:14.835Z,88765.00
2023-05-05T00:33:14.834Z,88765.00
2023-05-05T00:34:14.871Z,88765.00
2023-05-05T00:35:15.617Z,88767.00
2023-05-05T00:36:15.005Z,88767.00
2023-05-05T00:37:15.057Z,88767.00
2023-05-05T00:38:15.069Z,88765.00
2023-05-05T00:39:15.120Z,88763.00
2023-05-05T00:40:17.121Z,88761.00
2023-05-05T00:41:15.282Z,88763.00
2023-05-05T00:42:15.259Z,88763.00
2023-05-05T00:43:18.128Z,88763.00
2023-05-05T00:44:15.302Z,88759.00
2023-05-05T00:45:16.112Z,88759.00
2023-05-05T00:46:15.276Z,88759.00
2023-05-05T00:47:15.236Z,88761.00
2023-05-05T00:48:15.238Z,88759.00
2023-05-05T00:49:17.193Z,88755.00
2023-05-05T00:50:16.118Z,88759.00
2023-05-05T00:51:16.208Z,88757.00
2023-05-05T00:52:15.244Z,88755.00
2023-05-05T00:53:15.166Z,88755.00
2023-05-05T00:54:15.242Z,88755.00
2023-05-05T00:55:15.179Z,88755.00
2023-05-05T00:56:15.763Z,88753.00
2023-05-05T00:57:16.125Z,88753.00
2023-05-05T00:58:16.104Z,88751.00
2023-05-05T00:59:15.224Z,88751.00
2023-05-05T01:00:16.260Z,88749.00
2023-05-05T01:01:16.183Z,88749.00
2023-05-05T01:02:15.426Z,88748.00
2023-05-05T01:03:16.196Z,88746.00
2023-05-05T01:04:15.428Z,88748.00
2023-05-05T01:05:15.471Z,88748.00
2023-05-05T01:06:15.570Z,88748.00
2023-05-05T01:07:15.622Z,88749.00
2023-05-05T01:08:16.110Z,88746.00
2023-05-05T01:09:15.633Z,88748.00
2023-05-05T01:10:20.128Z,88746.00
2023-05-05T01:11:18.808Z,88746.00
2023-05-05T01:12:15.691Z,88744.00
2023-05-05T01:13:15.606Z,88746.00
2023-05-05T01:14:15.675Z,88742.00
2023-05-05T01:15:15.553Z,88748.00
2023-05-05T01:16:16.202Z,88746.00
2023-05-05T01:17:15.573Z,88742.00
2023-05-05T01:18:15.496Z,88748.00
2023-05-05T01:19:15.487Z,88744.00
2023-05-05T01:20:15.455Z,88748.00
2023-05-05T01:21:15.466Z,88749.00
2023-05-05T01:22:15.504Z,88749.00
2023-05-05T01:23:16.108Z,88748.00
2023-05-05T01:24:15.498Z,88746.00
2023-05-05T01:25:15.498Z,88749.00
2023-05-05T01:26:15.526Z,88749.00
2023-05-05T01:27:15.564Z,88748.00
2023-05-05T01:28:15.609Z,88744.00
2023-05-05T01:29:15.649Z,88748.00
2023-05-05T01:30:15.701Z,88748.00
2023-05-05T01:31:15.758Z,88748.00
2023-05-05T01:32:15.823Z,88744.00
2023-05-05T01:33:15.811Z,88748.00
2023-05-05T01:34:17.662Z,88746.00
2023-05-05T01:35:15.918Z,88744.00
2023-05-05T01:36:15.953Z,88746.00
2023-05-05T01:37:15.960Z,88748.00
2023-05-05T01:38:15.933Z,88744.00
2023-05-05T01:39:15.891Z,88746.00
2023-05-05T01:40:15.912Z,88746.00
2023-05-05T01:41:16.636Z,88748.00
2023-05-05T01:42:15.903Z,88746.00
2023-05-05T01:43:15.826Z,88746.00
2023-05-05T01:44:17.748Z,88748.00
2023-05-05T01:45:18.736Z,88749.00
2023-05-05T01:46:15.815Z,88749.00
2023-05-05T01:47:15.768Z,88749.00
2023-05-05T01:48:19.127Z,88751.00
2023-05-05T01:49:16.660Z,88749.00
2023-05-05T01:50:17.711Z,88753.00
2023-05-05T01:51:16.619Z,88755.00
2023-05-05T01:52:15.681Z,88753.00
2023-05-05T01:53:15.684Z,88755.00
2023-05-05T01:54:15.606Z,88755.00
2023-05-05T01:55:16.124Z,88755.00
2023-05-05T01:56:15.613Z,88757.00
2023-05-05T01:57:16.153Z,88757.00
2023-05-05T01:58:15.690Z,88757.00
2023-05-05T01:59:16.138Z,88757.00
2023-05-05T02:00:15.613Z,88757.00
2023-05-05T02:01:16.669Z,88759.00
2023-05-05T02:02:16.672Z,88757.00
2023-05-05T02:03:15.945Z,88761.00
2023-05-05T02:04:15.765Z,88759.00
2023-05-05T02:05:15.791Z,88759.00
2023-05-05T02:06:16.652Z,88759.00
2023-05-05T02:07:15.867Z,88757.00
2023-05-05T02:08:16.003Z,88759.00
2023-05-05T02:09:16.648Z,88757.00
2023-05-05T02:10:16.012Z,88757.00
2023-05-05T02:11:16.652Z,88759.00
2023-05-05T02:12:16.073Z,88757.00
2023-05-05T02:13:16.315Z,88755.00
2023-05-05T02:14:16.271Z,88759.00
2023-05-05T02:15:21.162Z,88757.00
2023-05-05T02:16:16.227Z,88755.00
2023-05-05T02:17:18.160Z,88759.00
2023-05-05T02:18:16.227Z,88755.00
2023-05-05T02:19:16.223Z,88761.00
2023-05-05T02:20:16.094Z,88759.00
2023-05-05T02:21:16.135Z,88761.00
2023-05-05T02:22:16.069Z,88759.00
2023-05-05T02:23:16.174Z,88761.00
2023-05-05T02:24:16.084Z,88761.00
2023-05-05T02:25:16.644Z,88759.00
2023-05-05T02:26:16.647Z,88759.00
2023-05-05T02:27:15.999Z,88761.00
2023-05-05T02:28:16.149Z,88761.00
2023-05-05T02:29:15.917Z,88761.00
2023-05-05T02:30:15.903Z,88761.00
2023-05-05T02:31:15.895Z,88759.00
2023-05-05T02:32:17.757Z,88759.00
2023-05-05T02:33:15.812Z,88759.00
2023-05-05T02:34:15.813Z,88761.00
2023-05-05T02:35:16.666Z,88759.00
2023-05-05T02:36:15.753Z,88759.00
2023-05-05T02:37:15.722Z,88761.00
2023-05-05T02:38:15.915Z,88761.00
2023-05-05T02:39:17.752Z,88761.00
2023-05-05T02:40:15.674Z,88761.00
2023-05-05T02:41:16.732Z,88761.00
2023-05-05T02:42:15.720Z,88765.00
2023-05-05T02:43:15.903Z,88761.00
2023-05-05T02:44:16.675Z,88761.00
2023-05-05T02:45:17.851Z,88765.00
2023-05-05T02:46:15.866Z,88757.00
2023-05-05T02:47:16.651Z,88755.00
2023-05-05T02:48:15.977Z,88759.00
2023-05-05T02:49:15.978Z,88761.00
2023-05-05T02:50:16.053Z,88761.00
2023-05-05T02:51:16.077Z,88763.00
2023-05-05T02:52:17.822Z,88763.00
2023-05-05T02:53:16.128Z,88765.00
2023-05-05T02:54:19.227Z,88767.00
2023-05-05T02:55:16.154Z,88765.00
2023-05-05T02:56:16.209Z,88763.00
2023-05-05T02:57:18.749Z,88763.00
2023-05-05T02:58:16.091Z,88763.00
2023-05-05T02:59:16.778Z,88761.00
2023-05-05T03:00:16.072Z,88763.00
2023-05-05T03:01:16.754Z,88763.00
2023-05-05T03:02:17.792Z,88761.00
2023-05-05T03:03:16.390Z,88763.00
2023-05-05T03:04:16.005Z,88761.00
2023-05-05T03:05:17.937Z,88761.00
2023-05-05T03:06:16.658Z,88763.00
2023-05-05T03:07:16.694Z,88763.00
2023-05-05T03:08:15.836Z,88763.00
2023-05-05T03:09:16.652Z,88763.00
2023-05-05T03:10:15.853Z,88763.00
2023-05-05T03:11:15.824Z,88761.00
2023-05-05T03:12:15.853Z,88763.00
2023-05-05T03:13:15.940Z,88763.00
2023-05-05T03:14:16.012Z,88761.00
2023-05-05T03:15:16.039Z,88761.00
2023-05-05T03:16:16.144Z,88761.00
2023-05-05T03:17:16.035Z,88761.00
2023-05-05T03:18:16.235Z,88757.00
2023-05-05T03:19:16.699Z,88759.00
2023-05-05T03:20:16.220Z,88757.00
2023-05-05T03:21:16.188Z,88757.00
2023-05-05T03:22:16.248Z,88753.00
2023-05-05T03:23:16.958Z,88751.00
2023-05-05T03:24:16.422Z,88753.00
2023-05-05T03:25:16.315Z,88753.00
2023-05-05T03:26:16.373Z,88753.00
2023-05-05T03:27:21.208Z,88751.00
2023-05-05T03:28:16.380Z,88749.00
2023-05-05T03:29:17.178Z,88749.00
2023-05-05T03:30:17.240Z,88749.00
2023-05-05T03:31:17.246Z,88748.00
2023-05-05T03:32:21.186Z,88749.00
2023-05-05T03:33:16.208Z,88748.00
2023-05-05T03:34:16.283Z,88746.00
2023-05-05T03:35:16.186Z,88748.00
2023-05-05T03:36:16.126Z,88749.00
2023-05-05T03:37:16.723Z,88748.00
2023-05-05T03:38:16.242Z,88748.00
2023-05-05T03:39:16.662Z,88748.00
2023-05-05T03:40:16.673Z,88749.00
2023-05-05T03:41:16.056Z,88751.00
2023-05-05T03:42:16.125Z,88751.00
2023-05-05T03:43:16.190Z,88753.00
2023-05-05T03:44:17.179Z,88753.00
2023-05-05T03:45:16.223Z,88755.00
2023-05-05T03:46:18.327Z,88755.00
2023-05-05T03:47:18.203Z,88751.00
2023-05-05T03:48:17.239Z,88751.00
2023-05-05T03:49:17.174Z,88749.00
2023-05-05T03:50:16.231Z,88749.00
2023-05-05T03:51:16.218Z,88751.00
2023-05-05T03:52:18.204Z,88742.00
2023-05-05T03:53:16.251Z,88744.00
2023-05-05T03:54:16.201Z,88744.00
2023-05-05T03:55:16.119Z,88742.00
2023-05-05T03:56:16.114Z,88740.00
2023-05-05T03:57:16.076Z,88742.00
2023-05-05T03:58:16.077Z,88742.00
2023-05-05T03:59:18.689Z,88742.00
2023-05-05T04:00:16.306Z,88742.00
2023-05-05T04:01:16.349Z,88740.00
2023-05-05T04:02:18.481Z,88744.00
2023-05-05T04:03:16.756Z,88740.00
2023-05-05T04:04:16.571Z,88738.00
2023-05-05T04:05:16.511Z,88738.00
2023-05-05T04:06:16.653Z,88736.00
2023-05-05T04:07:16.552Z,88740.00
2023-05-05T04:08:16.611Z,88740.00
2023-05-05T04:09:16.638Z,88742.00
2023-05-05T04:10:16.643Z,88742.00
2023-05-05T04:11:16.600Z,88742.00
2023-05-05T04:12:18.233Z,88742.00
2023-05-05T04:13:16.848Z,88744.00
2023-05-05T04:14:16.583Z,88742.00
2023-05-05T04:15:16.631Z,88746.00
2023-05-05T04:16:16.568Z,88746.00
2023-05-05T04:17:16.489Z,88746.00
2023-05-05T04:18:16.766Z,88749.00
2023-05-05T04:19:16.453Z,88748.00
2023-05-05T04:20:16.441Z,88748.00
2023-05-05T04:21:16.429Z,88746.00
2023-05-05T04:22:16.468Z,88749.00
2023-05-05T04:23:16.715Z,88746.00
2023-05-05T04:24:16.375Z,88751.00
2023-05-05T04:25:16.367Z,88749.00
2023-05-05T04:26:21.238Z,88749.00
2023-05-05T04:27:17.230Z,88751.00
2023-05-05T04:28:16.366Z,88751.00
2023-05-05T04:29:16.398Z,88753.00
2023-05-05T04:30:17.202Z,88755.00
2023-05-05T04:31:16.329Z,88755.00
2023-05-05T04:32:16.267Z,88755.00
2023-05-05T04:33:16.242Z,88755.00
2023-05-05T04:34:16.221Z,88755.00
2023-05-05T04:35:16.226Z,88753.00
2023-05-05T04:36:16.189Z,88753.00
2023-05-05T04:37:16.256Z,88751.00
2023-05-05T04:38:16.232Z,88749.00
2023-05-05T04:39:16.153Z,88749.00
2023-05-05T04:40:16.698Z,88753.00
2023-05-05T04:41:16.157Z,88751.00
2023-05-05T04:42:17.756Z,88751.00
2023-05-05T04:43:16.397Z,88749.00
2023-05-05T04:44:17.725Z,88751.00
2023-05-05T04:45:16.197Z,88748.00
2023-05-05T04:46:16.244Z,88748.00
2023-05-05T04:47:16.246Z,88748.00
2023-05-05T04:48:17.202Z,88749.00
2023-05-05T04:49:17.199Z,88748.00
2023-05-05T04:50:16.288Z,88748.00
2023-05-05T04:51:16.303Z,88748.00
2023-05-05T04:52:17.260Z,88746.00
2023-05-05T04:53:16.309Z,88746.00
2023-05-05T04:54:21.330Z,88742.00
2023-05-05T04:55:16.289Z,88740.00
2023-05-05T04:56:16.247Z,88740.00
2023-05-05T04:57:17.201Z,88744.00
2023-05-05T04:58:16.324Z,88744.00
2023-05-05T04:59:16.180Z,88744.00
2023-05-05T05:00:16.148Z,88746.00
2023-05-05T05:01:16.726Z,88748.00
2023-05-05T05:02:16.158Z,88749.00
2023-05-05T05:03:16.266Z,88749.00
2023-05-05T05:04:16.722Z,88751.00
2023-05-05T05:05:16.094Z,88749.00
2023-05-05T05:06:16.765Z,88751.00
2023-05-05T05:07:16.192Z,88753.00
2023-05-05T05:08:16.715Z,88753.00
2023-05-05T05:09:16.112Z,88751.00
2023-05-05T05:10:16.138Z,88751.00
2023-05-05T05:11:16.153Z,88753.00
2023-05-05T05:12:16.163Z,88755.00
2023-05-05T05:13:17.338Z,88753.00
2023-05-05T05:14:16.176Z,88753.00
2023-05-05T05:15:16.221Z,88749.00
2023-05-05T05:16:16.219Z,88749.00
2023-05-05T05:17:16.149Z,88751.00
2023-05-05T05:18:16.225Z,88751.00
2023-05-05T05:19:16.242Z,88748.00
2023-05-05T05:20:16.168Z,88753.00
2023-05-05T05:21:16.237Z,88751.00
2023-05-05T05:22:17.727Z,88749.00
2023-05-05T05:23:16.210Z,88749.00
2023-05-05T05:24:16.764Z,88751.00
2023-05-05T05:25:16.708Z,88749.00
2023-05-05T05:26:16.127Z,88751.00
2023-05-05T05:27:16.208Z,88749.00
2023-05-05T05:28:16.254Z,88749.00
2023-05-05T05:29:16.217Z,88749.00
2023-05-05T05:30:16.204Z,88749.00
2023-05-05T05:31:16.204Z,88748.00
2023-05-05T05:32:16.184Z,88749.00
2023-05-05T05:33:18.421Z,88753.00
2023-05-05T05:34:16.666Z,88751.00
2023-05-05T05:35:16.281Z,88749.00
2023-05-05T05:36:16.205Z,88746.00
2023-05-05T05:37:19.902Z,88749.00
2023-05-05T05:38:17.334Z,88746.00
2023-05-05T05:39:16.222Z,88746.00
2023-05-05T05:40:16.287Z,88746.00
2023-05-05T05:41:16.221Z,88746.00
2023-05-05T05:42:16.325Z,88746.00
2023-05-05T05:43:17.263Z,88746.00
2023-05-05T05:44:17.218Z,88749.00
2023-05-05T05:45:18.315Z,88746.00
2023-05-05T05:46:16.295Z,88748.00
2023-05-05T05:47:17.280Z,88746.00
2023-05-05T05:48:16.814Z,88748.00
2023-05-05T05:49:19.244Z,88749.00
2023-05-05T05:50:17.229Z,88749.00
2023-05-05T05:51:16.242Z,88751.00
2023-05-05T05:52:16.251Z,88751.00
2023-05-05T05:53:16.291Z,88751.00
2023-05-05T05:54:17.269Z,88749.00
2023-05-05T05:55:16.295Z,88748.00
2023-05-05T05:56:16.366Z,88751.00
2023-05-05T05:57:16.254Z,88751.00
2023-05-05T05:58:16.791Z,88749.00
2023-05-05T05:59:16.321Z,88751.00
2023-05-05T06:00:16.248Z,88755.00
2023-05-05T06:01:17.385Z,88755.00
2023-05-05T06:02:16.261Z,88753.00
2023-05-05T06:03:16.466Z,88751.00
2023-05-05T06:04:16.422Z,88749.00
2023-05-05T06:05:16.233Z,88749.00
2023-05-05T06:06:16.269Z,88748.00
2023-05-05T06:07:16.222Z,88749.00
2023-05-05T06:08:16.273Z,88748.00
2023-05-05T06:09:16.194Z,88749.00
2023-05-05T06:10:27.539Z,88748.00
2023-05-05T06:11:17.203Z,88748.00
2023-05-05T06:12:16.162Z,88746.00
2023-05-05T06:13:19.596Z,88744.00
2023-05-05T06:14:17.059Z,88744.00
2023-05-05T06:15:16.247Z,88744.00
2023-05-05T06:16:16.181Z,88742.00
2023-05-05T06:17:16.145Z,88742.00
2023-05-05T06:18:16.186Z,88742.00
2023-05-05T06:19:16.278Z,88740.00
2023-05-05T06:20:16.380Z,88740.00
2023-05-05T06:21:16.163Z,88740.00
2023-05-05T06:22:16.080Z,88740.00
2023-05-05T06:23:16.123Z,88738.00
2023-05-05T06:24:16.270Z,88740.00
2023-05-05T06:25:16.089Z,88736.00
2023-05-05T06:26:16.097Z,88740.00
2023-05-05T06:27:16.060Z,88738.00
2023-05-05T06:28:16.100Z,88738.00
2023-05-05T06:29:16.165Z,88736.00
2023-05-05T06:30:16.142Z,88736.00
2023-05-05T06:31:16.168Z,88734.00
2023-05-05T06:32:18.788Z,88734.00
2023-05-05T06:33:16.512Z,88727.00
2023-05-05T06:34:16.444Z,88734.00
2023-05-05T06:35:17.442Z,88725.00
2023-05-05T06:36:16.504Z,88725.00
2023-05-05T06:37:16.726Z,88723.00
2023-05-05T06:38:17.435Z,88723.00
2023-05-05T06:39:16.547Z,88727.00
2023-05-05T06:40:16.614Z,88721.00
2023-05-05T06:41:17.678Z,88725.00
2023-05-05T06:42:17.313Z,88723.00
2023-05-05T06:43:16.940Z,88723.00
2023-05-05T06:44:16.742Z,88721.00
2023-05-05T06:45:16.755Z,88723.00
2023-05-05T06:46:16.859Z,88719.00
2023-05-05T06:47:16.874Z,88723.00
2023-05-05T06:48:16.832Z,88719.00
2023-05-05T06:49:16.992Z,88717.00
2023-05-05T06:50:16.796Z,88715.00
2023-05-05T06:51:16.803Z,88713.00
2023-05-05T06:52:16.791Z,88713.00
2023-05-05T06:53:16.857Z,88709.00
2023-05-05T06:54:17.092Z,88713.00
2023-05-05T06:55:16.777Z,88717.00
2023-05-05T06:56:16.758Z,88717.00
2023-05-05T06:57:16.798Z,88715.00
2023-05-05T06:58:16.768Z,88717.00
2023-05-05T06:59:16.768Z,88719.00
2023-05-05T07:00:16.736Z,88719.00
2023-05-05T07:01:16.792Z,88719.00
2023-05-05T07:02:16.710Z,88719.00
2023-05-05T07:03:16.873Z,88715.00
2023-05-05T07:04:16.746Z,88715.00
2023-05-05T07:05:16.741Z,88715.00
2023-05-05T07:06:16.710Z,88715.00
2023-05-05T07:07:16.710Z,88715.00
2023-05-05T07:08:16.707Z,88713.00
2023-05-05T07:09:17.558Z,88713.00
2023-05-05T07:10:16.824Z,88713.00
2023-05-05T07:11:16.867Z,88715.00
2023-05-05T07:12:16.968Z,88717.00
2023-05-05T07:13:17.127Z,88715.00
2023-05-05T07:14:16.995Z,88719.00
2023-05-05T07:15:27.327Z,88717.00
2023-05-05T07:16:18.157Z,88715.00
2023-05-05T07:17:17.011Z,88713.00
2023-05-05T07:18:17.035Z,88711.00
2023-05-05T07:19:17.317Z,88711.00
2023-05-05T07:20:16.979Z,88709.00
2023-05-05T07:21:16.984Z,88707.00
2023-05-05T07:22:17.066Z,88705.00
2023-05-05T07:23:16.931Z,88709.00
2023-05-05T07:24:17.146Z,88705.00
2023-05-05T07:25:16.967Z,88707.00
2023-05-05T07:26:16.912Z,88703.00
2023-05-05T07:27:16.955Z,88703.00
2023-05-05T07:28:16.922Z,88703.00
2023-05-05T07:29:16.892Z,88699.00
2023-05-05T07:30:18.655Z,88703.00
2023-05-05T07:31:16.863Z,88699.00
2023-05-05T07:32:16.961Z,88697.00
2023-05-05T07:33:16.844Z,88699.00
2023-05-05T07:34:16.865Z,88697.00
2023-05-05T07:35:18.315Z,88693.00
2023-05-05T07:36:16.867Z,88697.00
2023-05-05T07:37:16.839Z,88697.00
2023-05-05T07:38:16.851Z,88695.00
2023-05-05T07:39:17.312Z,88695.00
2023-05-05T07:40:16.790Z,88695.00
2023-05-05T07:41:16.908Z,88695.00
2023-05-05T07:42:16.794Z,88693.00
2023-05-05T07:43:16.973Z,88693.00
2023-05-05T07:44:17.860Z,88693.00
2023-05-05T07:45:16.827Z,88695.00
2023-05-05T07:46:16.871Z,88687.00
2023-05-05T07:47:16.770Z,88683.00
2023-05-05T07:48:16.798Z,88683.00
2023-05-05T07:49:16.782Z,88679.00
2023-05-05T07:51:35.955Z,88677.00
2023-05-05T07:52:45.193Z,88677.00
2023-05-05T07:53:36.949Z,88675.00
2023-05-05T07:54:36.030Z,88675.00
2023-05-05T07:55:35.966Z,88675.00
2023-05-05T07:56:36.190Z,88673.00
2023-05-05T07:57:36.028Z,88673.00
2023-05-05T07:58:36.058Z,88670.00
2023-05-05T07:59:36.065Z,88670.00
2023-05-05T08:00:36.040Z,88668.00
2023-05-05T08:01:36.102Z,88666.00
2023-05-05T08:02:36.131Z,88666.00
2023-05-05T08:03:36.276Z,88666.00
2023-05-05T08:04:36.221Z,88662.00
2023-05-05T08:05:36.132Z,88662.00
2023-05-05T08:06:36.144Z,88664.00
2023-05-05T08:07:36.141Z,88664.00
2023-05-05T08:08:36.221Z,88660.00
2023-05-05T08:09:36.645Z,88658.00
2023-05-05T08:10:36.352Z,88660.00
2023-05-05T08:11:36.419Z,88658.00
2023-05-05T08:12:36.927Z,88658.00
2023-05-05T08:13:36.585Z,88660.00
2023-05-05T08:14:36.687Z,88658.00
2023-05-05T08:15:36.723Z,88656.00
2023-05-05T08:16:36.855Z,88656.00
2023-05-05T08:17:36.926Z,88654.00
2023-05-05T08:18:36.943Z,88654.00
2023-05-05T08:19:37.075Z,88654.00
2023-05-05T08:20:37.042Z,88650.00
2023-05-05T08:21:37.091Z,88650.00
2023-05-05T08:22:37.373Z,88650.00
2023-05-05T08:23:37.073Z,88650.00
2023-05-05T08:24:37.101Z,88648.00
2023-05-05T08:25:37.164Z,88648.00
2023-05-05T08:26:40.217Z,88650.00
2023-05-05T08:27:37.123Z,88650.00
2023-05-05T08:28:37.215Z,88650.00
2023-05-05T08:29:37.175Z,88650.00
2023-05-05T08:30:37.147Z,88650.00
2023-05-05T08:31:37.225Z,88650.00
2023-05-05T08:32:37.212Z,88648.00
2023-05-05T08:33:37.196Z,88648.00
2023-05-05T08:34:37.194Z,88650.00
2023-05-05T08:35:37.198Z,88646.00
2023-05-05T08:36:37.233Z,88644.00
2023-05-05T08:37:37.368Z,88644.00
2023-05-05T08:38:37.278Z,88642.00
2023-05-05T08:39:37.306Z,88642.00
2023-05-05T08:40:37.331Z,88642.00
2023-05-05T08:41:37.271Z,88638.00
2023-05-05T08:42:39.187Z,88640.00
2023-05-05T08:43:37.380Z,88638.00
2023-05-05T08:44:37.551Z,88638.00
2023-05-05T08:45:37.450Z,88640.00
2023-05-05T08:46:37.500Z,88634.00
2023-05-05T08:47:37.579Z,88634.00
2023-05-05T08:48:37.693Z,88634.00
2023-05-05T08:49:37.639Z,88630.00
2023-05-05T08:50:37.626Z,88634.00
2023-05-05T08:51:37.683Z,88632.00
2023-05-05T08:52:37.774Z,88630.00
2023-05-05T08:53:38.738Z,88636.00
2023-05-05T08:54:37.725Z,88634.00
2023-05-05T08:55:52.782Z,88630.00
2023-05-05T08:56:37.738Z,88632.00
2023-05-05T08:57:37.739Z,88634.00
2023-05-05T08:58:40.715Z,88634.00
2023-05-05T08:59:38.828Z,88632.00
2023-05-05T09:00:37.848Z,88630.00
2023-05-05T09:01:37.879Z,88630.00
2023-05-05T09:02:37.924Z,88632.00
2023-05-05T09:03:38.688Z,88632.00
2023-05-05T09:04:37.777Z,88634.00
2023-05-05T09:05:37.887Z,88632.00
2023-05-05T09:06:38.736Z,88632.00
2023-05-05T09:07:37.788Z,88632.00
2023-05-05T09:08:37.840Z,88630.00
2023-05-05T09:09:37.790Z,88628.00
2023-05-05T09:10:37.799Z,88628.00
2023-05-05T09:11:37.895Z,88624.00
2023-05-05T09:12:37.839Z,88626.00
2023-05-05T09:13:37.794Z,88622.00
2023-05-05T09:14:40.704Z,88621.00
2023-05-05T09:15:37.808Z,88621.00
2023-05-05T09:16:38.160Z,88619.00
2023-05-05T09:17:37.886Z,88619.00
2023-05-05T09:18:37.842Z,88619.00
2023-05-05T09:19:38.149Z,88617.00
2023-05-05T09:20:37.903Z,88617.00
2023-05-05T09:21:37.850Z,88617.00
2023-05-05T09:22:38.663Z,88615.00
2023-05-05T09:23:37.884Z,88613.00
2023-05-05T09:24:37.933Z,88613.00
2023-05-05T09:25:38.008Z,88613.00
2023-05-05T09:26:37.965Z,88613.00
2023-05-05T09:27:37.879Z,88611.00
2023-05-05T09:28:38.010Z,88611.00
2023-05-05T09:29:37.922Z,88611.00
2023-05-05T09:30:38.018Z,88611.00
2023-05-05T09:31:38.717Z,88609.00
2023-05-05T09:32:37.991Z,88615.00
2023-05-05T09:33:37.934Z,88615.00
2023-05-05T09:34:38.123Z,88613.00
2023-05-05T09:35:37.964Z,88611.00
2023-05-05T09:36:37.943Z,88611.00
2023-05-05T09:37:37.968Z,88609.00
2023-05-05T09:38:37.951Z,88609.00
2023-05-05T09:39:38.150Z,88611.00
2023-05-05T09:40:38.432Z,88609.00
2023-05-05T09:41:38.146Z,88607.00
2023-05-05T09:42:37.994Z,88609.00
2023-05-05T09:43:38.044Z,88609.00
2023-05-05T09:44:38.195Z,88607.00
2023-05-05T09:45:38.079Z,88611.00
2023-05-05T09:46:38.119Z,88611.00
2023-05-05T09:47:38.154Z,88609.00
2023-05-05T09:48:38.114Z,88609.00
2023-05-05T09:49:38.092Z,88605.00
2023-05-05T09:50:38.098Z,88605.00
2023-05-05T09:51:38.076Z,88605.00
2023-05-05T09:52:38.148Z,88607.00
2023-05-05T09:53:38.204Z,88605.00
2023-05-05T09:54:38.131Z,88609.00
2023-05-05T09:55:38.141Z,88609.00
2023-05-05T09:56:38.137Z,88609.00
2023-05-05T09:57:38.188Z,88605.00
2023-05-05T09:58:38.204Z,88609.00
2023-05-05T09:59:38.142Z,88607.00
2023-05-05T10:00:38.149Z,88605.00
2023-05-05T10:01:38.413Z,88601.00
2023-05-05T10:02:38.293Z,88599.00
2023-05-05T10:03:38.178Z,88601.00
2023-05-05T10:04:38.580Z,88597.00
2023-05-05T10:05:38.227Z,88601.00
2023-05-05T10:06:38.258Z,88599.00
2023-05-05T10:07:38.274Z,88601.00
2023-05-05T10:08:38.238Z,88599.00
2023-05-05T10:09:38.264Z,88599.00
2023-05-05T10:10:38.231Z,88599.00
2023-05-05T10:11:38.250Z,88595.00
2023-05-05T10:12:39.148Z,88597.00
2023-05-05T10:13:38.485Z,88595.00
2023-05-05T10:14:38.654Z,88595.00
2023-05-05T10:15:38.302Z,88595.00
2023-05-05T10:16:38.345Z,88593.00
2023-05-05T10:17:38.393Z,88591.00
2023-05-05T10:18:38.398Z,88589.00
2023-05-05T10:19:38.291Z,88589.00
2023-05-05T10:20:38.306Z,88589.00
2023-05-05T10:21:39.762Z,88585.00
2023-05-05T10:22:38.525Z,88585.00
2023-05-05T10:23:38.562Z,88581.00
2023-05-05T10:24:38.606Z,88583.00
2023-05-05T10:25:38.639Z,88579.00
2023-05-05T10:26:38.562Z,88583.00
2023-05-05T10:27:38.643Z,88581.00
2023-05-05T10:28:39.221Z,88579.00
2023-05-05T10:29:38.653Z,88581.00
2023-05-05T10:30:38.737Z,88581.00
2023-05-05T10:31:38.731Z,88575.00
2023-05-05T10:33:38.923Z,88575.00
2023-05-05T10:34:38.796Z,88571.00
2023-05-05T10:35:38.695Z,88573.00
2023-05-05T10:36:41.823Z,88570.00
2023-05-05T10:37:38.689Z,88570.00
2023-05-05T10:38:38.819Z,88566.00
2023-05-05T10:39:39.186Z,88564.00
2023-05-05T10:40:39.056Z,88560.00
2023-05-05T10:41:38.726Z,88560.00
2023-05-05T10:42:38.748Z,88558.00
2023-05-05T10:43:38.722Z,88554.00
2023-05-05T10:44:38.946Z,88558.00
2023-05-05T10:45:38.797Z,88556.00
2023-05-05T10:46:38.780Z,88554.00
2023-05-05T10:47:38.754Z,88550.00
2023-05-05T10:48:39.769Z,88554.00
2023-05-05T10:49:38.754Z,88550.00
2023-05-05T10:50:38.712Z,88548.00
2023-05-05T10:51:41.004Z,88546.00
2023-05-05T10:52:39.048Z,88548.00
2023-05-05T10:53:39.031Z,88542.00
2023-05-05T10:54:39.667Z,88542.00
2023-05-05T10:55:38.894Z,88540.00
2023-05-05T10:56:38.887Z,88540.00
2023-05-05T10:57:39.008Z,88538.00
2023-05-05T10:58:55.508Z,88536.00
2023-05-05T10:59:39.966Z,88534.00
2023-05-05T11:00:39.717Z,88534.00
2023-05-05T11:01:39.702Z,88530.00
2023-05-05T11:02:38.969Z,88532.00
2023-05-05T11:03:39.038Z,88530.00
2023-05-05T11:04:38.907Z,88530.00
2023-05-05T11:05:38.961Z,88528.00
2023-05-05T11:06:39.737Z,88524.00
2023-05-05T11:07:38.945Z,88526.00
2023-05-05T11:08:38.938Z,88524.00
2023-05-05T11:09:39.023Z,88520.00
2023-05-05T11:10:38.991Z,88516.00
2023-05-05T11:11:39.717Z,88516.00
2023-05-05T11:12:39.057Z,88518.00
2023-05-05T11:13:39.117Z,88518.00
2023-05-05T11:14:38.962Z,88518.00
2023-05-05T11:15:38.892Z,88515.00
2023-05-05T11:16:39.856Z,88511.00
2023-05-05T11:17:38.933Z,88511.00
2023-05-05T11:18:38.947Z,88509.00
2023-05-05T11:19:39.054Z,88505.00
2023-05-05T11:20:38.945Z,88501.00
2023-05-05T11:21:38.875Z,88501.00
2023-05-05T11:22:38.831Z,88499.00
2023-05-05T11:23:38.872Z,88499.00
2023-05-05T11:24:39.242Z,88497.00
2023-05-05T11:25:38.851Z,88495.00
2023-05-05T11:26:38.851Z,88497.00
2023-05-05T11:27:39.674Z,88495.00
2023-05-05T11:28:39.155Z,88495.00
2023-05-05T11:29:40.036Z,88497.00
2023-05-05T11:30:39.141Z,88499.00
2023-05-05T11:31:38.871Z,88495.00
2023-05-05T11:32:39.052Z,88493.00
2023-05-05T11:33:39.901Z,88493.00
2023-05-05T11:34:38.855Z,88489.00
2023-05-05T11:35:38.789Z,88491.00
2023-05-05T11:36:39.023Z,88489.00
2023-05-05T11:37:38.757Z,88491.00
2023-05-05T11:38:38.793Z,88489.00
2023-05-05T11:39:38.865Z,88485.00
2023-05-05T11:40:38.843Z,88487.00
2023-05-05T11:41:38.768Z,88485.00
2023-05-05T11:42:38.781Z,88483.00
2023-05-05T11:43:38.739Z,88481.00
2023-05-05T11:44:38.745Z,88485.00
2023-05-05T11:45:38.774Z,88481.00
2023-05-05T11:46:38.817Z,88481.00
2023-05-05T11:47:38.755Z,88479.00